createdAt,value
2022-10-24T00:00:51.576Z,14.94
2022-10-24T00:03:18.007Z,14.88
2022-10-24T00:05:45.082Z,14.92
2022-10-24T00:08:11.550Z,14.96
2022-10-24T00:10:41.084Z,15.02
2022-10-24T00:13:07.999Z,15.05
2022-10-24T00:15:34.329Z,15.08
2022-10-24T00:18:00.672Z,15.04
2022-10-24T00:20:27.103Z,15.00
2022-10-24T00:22:54.829Z,14.96
2022-10-24T00:25:21.192Z,14.92
2022-10-24T00:27:47.573Z,14.99
2022-10-24T00:30:13.958Z,14.97
2022-10-24T00:32:40.352Z,15.01
2022-10-24T00:35:06.985Z,15.10
2022-10-24T00:37:33.366Z,15.13
2022-10-24T00:40:00.139Z,15.15
2022-10-24T00:42:26.509Z,15.07
2022-10-24T00:44:53.403Z,14.99
2022-10-24T00:47:21.973Z,14.95
2022-10-24T00:49:50.127Z,14.94
2022-10-24T00:52:20.107Z,14.89
2022-10-24T00:54:46.867Z,14.86
2022-10-24T00:57:22.417Z,14.83
2022-10-24T00:59:51.368Z,14.84
2022-10-24T01:02:17.767Z,14.88
2022-10-24T01:04:46.336Z,14.87
2022-10-24T01:07:32.906Z,14.86
2022-10-24T01:10:11.576Z,15.03
2022-10-24T01:12:37.946Z,14.99
2022-10-24T01:15:04.341Z,14.97
2022-10-24T01:17:36.711Z,15.06
2022-10-24T01:20:32.585Z,15.05
2022-10-24T01:23:01.698Z,15.09
2022-10-24T01:25:44.267Z,15.10
2022-10-24T01:28:24.574Z,15.07
2022-10-24T01:30:56.866Z,15.04
2022-10-24T01:33:29.220Z,15.08
2022-10-24T01:36:03.021Z,15.07
2022-10-24T01:38:32.627Z,15.02
2022-10-24T01:41:07.917Z,14.96
2022-10-24T01:43:40.153Z,14.97
2022-10-24T01:46:12.098Z,15.02
2022-10-24T01:48:41.172Z,14.97
2022-10-24T01:51:08.049Z,14.87
2022-10-24T01:53:36.098Z,15.00
2022-10-24T01:56:02.551Z,15.08
2022-10-24T01:58:28.903Z,14.96
2022-10-24T02:00:58.470Z,14.90
2022-10-24T02:03:29.769Z,14.90
2022-10-24T02:05:59.017Z,14.84
2022-10-24T02:08:29.283Z,14.84
2022-10-24T02:10:58.440Z,14.87
2022-10-24T02:13:24.765Z,14.82
2022-10-24T02:15:52.899Z,14.84
2022-10-24T02:18:19.777Z,14.82
2022-10-24T02:20:52.292Z,14.88
2022-10-24T02:23:24.814Z,14.86
2022-10-24T02:25:52.438Z,14.90
2022-10-24T02:28:23.165Z,14.80
2022-10-24T02:30:56.153Z,14.80
2022-10-24T02:33:22.973Z,14.79
2022-10-24T02:35:50.143Z,14.81
2022-10-24T02:38:30.490Z,14.73
2022-10-24T02:40:57.624Z,14.75
2022-10-24T02:43:25.551Z,14.76
2022-10-24T02:45:53.976Z,14.77
2022-10-24T02:48:22.753Z,14.75
2022-10-24T02:53:20.009Z,14.82
2022-10-24T02:55:46.445Z,14.75
2022-10-24T02:58:13.156Z,14.75
2022-10-24T03:00:39.580Z,14.85
2022-10-24T03:03:05.989Z,14.78
2022-10-24T03:05:32.427Z,14.76
2022-10-24T03:07:58.844Z,14.70
2022-10-24T03:10:25.217Z,14.67
2022-10-24T03:12:51.584Z,14.77
2022-10-24T03:15:18.213Z,14.68
2022-10-24T03:17:44.956Z,14.85
2022-10-24T03:20:11.510Z,14.77
2022-10-24T03:22:37.888Z,14.81
2022-10-24T03:25:06.138Z,14.82
2022-10-24T03:27:34.007Z,14.79
2022-10-24T03:30:01.083Z,14.65
2022-10-24T03:32:27.750Z,14.70
2022-10-24T03:34:54.191Z,14.66
2022-10-24T03:37:20.579Z,14.59
2022-10-24T03:39:47.043Z,14.49
2022-10-24T03:42:13.396Z,14.52
2022-10-24T03:44:39.981Z,14.41
2022-10-24T03:47:06.330Z,14.40
2022-10-24T03:49:32.716Z,14.41
2022-10-24T03:51:59.167Z,14.44
2022-10-24T03:54:25.531Z,14.38
2022-10-24T03:56:52.052Z,14.34
2022-10-24T03:59:18.423Z,14.40
2022-10-24T04:01:45.000Z,14.37
2022-10-24T04:04:11.439Z,14.35
2022-10-24T04:06:37.864Z,14.37
2022-10-24T04:09:04.524Z,14.49
2022-10-24T04:11:31.367Z,14.45
2022-10-24T04:13:58.364Z,14.48
2022-10-24T04:16:24.868Z,14.48
2022-10-24T04:18:51.383Z,14.51
2022-10-24T04:21:21.455Z,14.45
2022-10-24T04:23:48.341Z,14.47
2022-10-24T04:26:15.283Z,14.44
2022-10-24T04:28:41.801Z,14.39
2022-10-24T04:31:08.212Z,14.39
2022-10-24T04:33:36.282Z,14.33
2022-10-24T04:36:03.305Z,14.38
2022-10-24T04:38:33.384Z,14.35
2022-10-24T04:41:00.536Z,14.37
2022-10-24T04:43:26.929Z,14.45
2022-10-24T04:45:53.331Z,14.37
2022-10-24T04:48:20.157Z,14.42
2022-10-24T04:50:47.455Z,14.38
2022-10-24T04:53:14.190Z,14.43
2022-10-24T04:55:40.594Z,14.47
2022-10-24T04:58:07.040Z,14.44
2022-10-24T05:00:33.465Z,14.47
2022-10-24T05:02:59.900Z,14.36
2022-10-24T05:05:26.287Z,14.38
2022-10-24T05:07:52.928Z,14.36
2022-10-24T05:10:19.387Z,14.40
2022-10-24T05:12:45.921Z,14.30
2022-10-24T05:15:14.365Z,14.29
2022-10-24T05:17:41.042Z,14.26
2022-10-24T05:20:08.590Z,14.24
2022-10-24T05:22:35.026Z,14.30
2022-10-24T05:25:01.422Z,14.27
2022-10-24T05:27:27.815Z,14.21
2022-10-24T05:29:54.599Z,14.15
2022-10-24T05:32:21.773Z,14.16
2022-10-24T05:34:48.297Z,14.08
2022-10-24T05:37:14.699Z,14.02
2022-10-24T05:39:41.154Z,14.00
2022-10-24T05:42:07.985Z,14.01
2022-10-24T05:44:34.496Z,14.06
2022-10-24T05:47:00.927Z,14.13
2022-10-24T05:49:27.313Z,14.05
2022-10-24T05:51:53.750Z,14.03
2022-10-24T05:54:20.189Z,14.03
2022-10-24T05:56:46.577Z,13.98
2022-10-24T05:59:13.063Z,13.91
2022-10-24T06:01:40.351Z,13.92
2022-10-24T06:04:09.997Z,13.89
2022-10-24T06:06:40.223Z,13.85
2022-10-24T06:09:06.716Z,13.90
2022-10-24T06:11:33.105Z,13.81
2022-10-24T06:14:00.153Z,13.81
2022-10-24T06:16:27.606Z,13.79
2022-10-24T06:18:54.030Z,13.80
2022-10-24T06:21:20.434Z,13.80
2022-10-24T06:23:46.858Z,13.77
2022-10-24T06:26:14.589Z,13.77
2022-10-24T06:28:41.370Z,13.77
2022-10-24T06:31:08.677Z,13.78
2022-10-24T06:33:35.363Z,13.74
2022-10-24T06:36:04.623Z,13.74
2022-10-24T06:38:31.873Z,13.76
2022-10-24T06:40:58.290Z,13.85
2022-10-24T06:43:24.685Z,13.81
2022-10-24T06:45:51.061Z,13.86
2022-10-24T06:48:17.471Z,13.91
2022-10-24T06:50:43.895Z,14.00
2022-10-24T06:53:10.311Z,14.10
2022-10-24T06:55:40.515Z,14.10
2022-10-24T06:58:07.071Z,14.07
2022-10-24T07:00:34.655Z,14.13
2022-10-24T07:03:01.218Z,14.14
2022-10-24T07:05:27.621Z,14.17
2022-10-24T07:07:54.035Z,14.25
2022-10-24T07:10:20.513Z,14.28
2022-10-24T07:12:47.157Z,14.54
2022-10-24T07:15:13.845Z,14.41
2022-10-24T07:17:41.279Z,14.37
2022-10-24T07:20:07.978Z,14.51
2022-10-24T07:22:34.525Z,14.41
2022-10-24T07:25:00.999Z,14.39
2022-10-24T07:27:27.425Z,14.54
2022-10-24T07:29:53.866Z,14.52
2022-10-24T07:32:20.935Z,14.52
2022-10-24T07:34:47.787Z,14.56
2022-10-24T07:37:14.889Z,14.60
2022-10-24T07:39:41.284Z,14.60
2022-10-24T07:42:07.737Z,14.58
2022-10-24T07:44:34.194Z,14.56
2022-10-24T07:47:01.075Z,14.56
2022-10-24T07:49:30.201Z,14.59
2022-10-24T07:51:59.562Z,14.67
2022-10-24T07:54:26.776Z,14.66
2022-10-24T07:56:54.207Z,14.76
2022-10-24T07:59:40.904Z,14.85
2022-10-24T08:02:08.646Z,15.07
2022-10-24T08:04:35.038Z,15.03
2022-10-24T08:07:01.462Z,15.23
2022-10-24T08:09:27.913Z,15.35
2022-10-24T08:11:54.282Z,15.35
2022-10-24T08:14:20.692Z,15.40
2022-10-24T08:16:47.118Z,15.44
2022-10-24T08:19:13.784Z,15.48
2022-10-24T08:21:40.196Z,15.57
2022-10-24T08:24:06.738Z,15.62
2022-10-24T08:26:33.114Z,15.67
2022-10-24T08:29:01.408Z,15.70
2022-10-24T08:31:27.781Z,15.63
2022-10-24T08:33:55.675Z,15.77
2022-10-24T08:36:24.054Z,15.80
2022-10-24T08:38:50.432Z,15.76
2022-10-24T08:41:30.884Z,15.86
2022-10-24T08:43:59.510Z,15.98
2022-10-24T08:46:34.977Z,16.02
2022-10-24T08:49:13.625Z,15.84
2022-10-24T08:51:48.414Z,16.05
2022-10-24T08:54:18.380Z,15.96
2022-10-24T08:56:44.768Z,16.00
2022-10-24T08:59:12.485Z,16.01
2022-10-24T09:01:59.372Z,15.97
2022-10-24T09:04:31.233Z,16.00
2022-10-24T09:06:57.881Z,16.11
2022-10-24T09:09:28.152Z,16.17
2022-10-24T09:11:54.522Z,16.18
2022-10-24T09:14:22.382Z,16.36
2022-10-24T09:16:54.483Z,16.34
2022-10-24T09:19:22.451Z,16.43
2022-10-24T09:21:49.512Z,16.38
2022-10-24T09:24:21.876Z,16.32
2022-10-24T09:26:48.767Z,16.08
2022-10-24T09:29:15.137Z,16.22
2022-10-24T09:31:41.509Z,16.26
2022-10-24T09:34:12.733Z,16.22
2022-10-24T09:36:39.649Z,16.15
2022-10-24T09:39:24.717Z,16.21
2022-10-24T09:41:53.271Z,16.25
2022-10-24T09:44:31.167Z,16.33
2022-10-24T09:46:57.691Z,16.32
2022-10-24T09:49:26.315Z,16.39
2022-10-24T09:52:04.957Z,16.50
2022-10-24T09:54:32.591Z,16.59
2022-10-24T09:56:59.066Z,16.58
2022-10-24T09:59:34.556Z,16.63
2022-10-24T10:02:07.018Z,16.80
2022-10-24T10:04:33.477Z,16.87
2022-10-24T10:07:00.073Z,16.80
2022-10-24T10:09:34.935Z,16.89
2022-10-24T10:12:02.981Z,16.79
2022-10-24T10:14:30.023Z,16.83
2022-10-24T10:17:01.236Z,16.82
2022-10-24T10:19:29.482Z,16.85
2022-10-24T10:21:57.401Z,16.78
2022-10-24T10:24:38.418Z,16.98
2022-10-24T10:27:23.398Z,17.04
2022-10-24T10:29:49.798Z,17.08
2022-10-24T10:32:22.831Z,17.07
2022-10-24T10:34:59.327Z,17.10
2022-10-24T10:37:27.737Z,17.03
2022-10-24T10:40:00.234Z,16.94
2022-10-24T10:42:59.151Z,16.97
2022-10-24T10:45:28.324Z,16.98
2022-10-24T10:48:00.370Z,16.92
2022-10-24T10:50:49.255Z,16.94
2022-10-24T10:53:34.434Z,17.02
2022-10-24T10:56:00.780Z,16.87
2022-10-24T10:58:47.311Z,17.00
2022-10-24T11:01:17.032Z,17.08
2022-10-24T11:04:04.700Z,17.05
2022-10-24T11:06:44.020Z,17.03
2022-10-24T11:09:10.372Z,16.97
2022-10-24T11:12:03.291Z,17.02
2022-10-24T11:14:29.672Z,17.02
2022-10-24T11:16:58.565Z,17.05
2022-10-24T11:19:39.269Z,17.05
2022-10-24T11:22:07.145Z,17.13
2022-10-24T11:24:38.062Z,17.22
2022-10-24T11:27:09.840Z,17.23
2022-10-24T11:29:50.604Z,17.27
2022-10-24T11:32:26.020Z,17.25
2022-10-24T11:35:01.824Z,17.29
2022-10-24T11:37:32.079Z,17.32
2022-10-24T11:40:05.055Z,17.24
2022-10-24T11:42:41.101Z,17.17
2022-10-24T11:45:07.872Z,17.20
2022-10-24T11:47:39.774Z,17.17
2022-10-24T11:50:06.323Z,17.18
2022-10-24T11:52:35.301Z,17.16
2022-10-24T11:55:07.669Z,17.19
2022-10-24T11:57:35.449Z,17.20
2022-10-24T12:00:01.906Z,17.22
2022-10-24T12:02:37.967Z,17.22
2022-10-24T12:05:19.365Z,17.19
2022-10-24T12:07:52.443Z,17.18
2022-10-24T12:10:27.991Z,17.18
2022-10-24T12:13:26.893Z,17.19
2022-10-24T12:16:05.222Z,17.32
2022-10-24T12:18:38.006Z,17.49
2022-10-24T12:21:16.127Z,17.57
2022-10-24T12:23:43.100Z,17.53
2022-10-24T12:26:20.126Z,17.51
2022-10-24T12:28:55.489Z,17.36
2022-10-24T12:31:26.165Z,17.39
2022-10-24T12:34:13.160Z,17.47
2022-10-24T12:36:58.232Z,17.48
2022-10-24T12:39:35.449Z,17.53
2022-10-24T12:42:02.181Z,17.57
2022-10-24T12:44:34.411Z,17.69
2022-10-24T12:47:01.735Z,17.74
2022-10-24T12:49:29.950Z,17.78
2022-10-24T12:51:56.696Z,17.81
2022-10-24T12:54:43.349Z,17.80
2022-10-24T12:57:12.736Z,17.81
2022-10-24T12:59:47.056Z,17.96
2022-10-24T13:02:13.548Z,18.02
2022-10-24T13:04:47.811Z,18.11
2022-10-24T13:07:21.024Z,18.14
2022-10-24T13:09:53.496Z,18.03
2022-10-24T13:12:22.839Z,18.01
2022-10-24T13:15:00.698Z,18.04
2022-10-24T13:17:35.824Z,17.90
2022-10-24T13:20:25.585Z,17.91
2022-10-24T13:23:00.476Z,17.95
2022-10-24T13:25:37.367Z,17.81
2022-10-24T13:28:24.874Z,17.85
2022-10-24T13:31:11.190Z,17.87
2022-10-24T13:33:41.574Z,17.85
2022-10-24T13:36:27.814Z,17.81
2022-10-24T13:39:02.006Z,17.80
2022-10-24T13:41:31.277Z,17.64
2022-10-24T13:44:03.211Z,17.59
2022-10-24T13:46:37.453Z,17.53
2022-10-24T13:49:04.778Z,17.55
2022-10-24T13:51:43.188Z,17.58
2022-10-24T13:54:29.795Z,17.71
2022-10-24T13:56:58.464Z,17.79
2022-10-24T13:59:27.650Z,17.85
2022-10-24T14:01:54.681Z,17.89
2022-10-24T14:04:21.079Z,17.94
2022-10-24T14:06:47.520Z,17.82
2022-10-24T14:09:13.892Z,17.81
2022-10-24T14:11:47.812Z,17.84
2022-10-24T14:14:34.446Z,17.78
2022-10-24T14:17:22.918Z,17.80
2022-10-24T14:19:55.211Z,17.73
2022-10-24T14:22:27.989Z,17.69
2022-10-24T14:24:54.527Z,17.63
2022-10-24T14:27:21.070Z,17.61
2022-10-24T14:29:56.532Z,17.68
2022-10-24T14:32:24.058Z,17.80
2022-10-24T14:34:50.874Z,17.84
2022-10-24T14:37:23.499Z,17.78
2022-10-24T14:39:49.939Z,17.76
2022-10-24T14:42:18.311Z,17.71
2022-10-24T14:44:46.365Z,17.73
2022-10-24T14:47:15.750Z,17.75
2022-10-24T14:49:42.110Z,17.76
2022-10-24T14:52:10.707Z,17.74
2022-10-24T14:54:37.920Z,17.68
2022-10-24T14:57:09.247Z,17.64
2022-10-24T14:59:38.620Z,17.61
2022-10-24T15:02:24.965Z,17.58
2022-10-24T15:04:51.977Z,17.57
2022-10-24T15:07:24.575Z,17.58
2022-10-24T15:09:55.713Z,17.56
2022-10-24T15:12:32.694Z,17.59
2022-10-24T15:14:59.645Z,17.52
2022-10-24T15:17:31.470Z,17.51
2022-10-24T15:20:01.185Z,17.48
2022-10-24T15:22:27.583Z,17.53
2022-10-24T15:24:54.951Z,17.51
2022-10-24T15:27:26.544Z,17.39
2022-10-24T15:29:52.912Z,17.39
2022-10-24T15:32:19.331Z,17.44
2022-10-24T15:34:45.678Z,17.35
2022-10-24T15:37:22.769Z,17.31
2022-10-24T15:39:49.300Z,17.33
2022-10-24T15:42:17.663Z,17.31
2022-10-24T15:44:46.604Z,17.27
2022-10-24T15:47:12.970Z,17.27
2022-10-24T15:49:39.411Z,17.24
2022-10-24T15:52:07.246Z,17.24
2022-10-24T15:54:33.909Z,17.19
2022-10-24T15:57:04.944Z,17.21
2022-10-24T15:59:31.881Z,17.19
2022-10-24T16:02:00.454Z,16.96
2022-10-24T16:04:27.587Z,17.05
2022-10-24T16:06:53.968Z,17.19
2022-10-24T16:09:22.557Z,17.12
2022-10-24T16:11:49.095Z,17.02
2022-10-24T16:14:17.224Z,16.92
2022-10-24T16:16:43.820Z,17.02
2022-10-24T16:19:10.565Z,17.27
2022-10-24T16:21:37.073Z,17.16
2022-10-24T16:24:03.894Z,17.09
2022-10-24T16:26:30.254Z,17.02
2022-10-24T16:28:56.691Z,16.88
2022-10-24T16:31:23.490Z,16.72
2022-10-24T16:33:50.493Z,16.54
2022-10-24T16:36:19.595Z,16.66
2022-10-24T16:38:48.639Z,16.65
2022-10-24T16:41:18.980Z,16.67
2022-10-24T16:43:47.620Z,16.67
2022-10-24T16:46:20.223Z,16.64
2022-10-24T16:48:47.133Z,16.64
2022-10-24T16:51:15.261Z,16.60
2022-10-24T16:53:41.908Z,16.54
2022-10-24T16:56:12.005Z,16.49
2022-10-24T16:58:38.933Z,16.38
2022-10-24T17:01:15.828Z,16.33
2022-10-24T17:03:44.751Z,16.37
2022-10-24T17:06:11.573Z,16.45
2022-10-24T17:08:38.059Z,16.48
2022-10-24T17:11:09.528Z,16.47
2022-10-24T17:13:42.766Z,16.48
2022-10-24T17:16:09.903Z,16.46
2022-10-24T17:18:36.857Z,16.50
2022-10-24T17:21:03.304Z,16.35
2022-10-24T17:23:29.739Z,16.24
2022-10-24T17:25:56.200Z,16.43
2022-10-24T17:28:22.579Z,16.48
2022-10-24T17:30:49.187Z,16.27
2022-10-24T17:33:15.737Z,15.62
2022-10-24T17:35:46.915Z,15.64
2022-10-24T17:38:31.827Z,15.94
2022-10-24T17:41:03.142Z,15.75
2022-10-24T17:43:29.656Z,15.63
2022-10-24T17:45:57.104Z,15.84
2022-10-24T17:48:23.698Z,15.55
2022-10-24T17:50:58.922Z,15.75
2022-10-24T17:53:25.622Z,15.50
2022-10-24T17:55:51.986Z,15.27
2022-10-24T17:58:18.393Z,15.69
2022-10-24T18:00:45.249Z,15.48
2022-10-24T18:03:11.785Z,15.57
2022-10-24T18:05:38.774Z,15.60
2022-10-24T18:08:06.692Z,15.95
2022-10-24T18:10:33.080Z,15.91
2022-10-24T18:15:30.923Z,15.83
2022-10-24T18:17:57.353Z,15.70
2022-10-24T18:20:24.169Z,15.71
2022-10-24T18:22:50.999Z,15.46
2022-10-24T18:25:20.419Z,15.09
2022-10-24T18:27:49.633Z,15.06
2022-10-24T18:30:19.057Z,15.01
2022-10-24T18:32:46.115Z,15.25
2022-10-24T18:35:12.671Z,15.30
2022-10-24T18:37:39.100Z,15.36
2022-10-24T18:40:06.448Z,15.29
2022-10-24T18:42:32.785Z,15.35
2022-10-24T18:44:59.424Z,15.41
2022-10-24T18:47:26.421Z,15.37
2022-10-24T18:49:53.297Z,15.59
2022-10-24T18:52:29.109Z,15.66
2022-10-24T18:54:58.376Z,15.73
2022-10-24T18:57:26.518Z,15.67
2022-10-24T18:59:53.272Z,15.48
2022-10-24T19:02:22.445Z,15.64
2022-10-24T19:04:52.396Z,15.48
2022-10-24T19:07:18.956Z,15.53
2022-10-24T19:09:45.448Z,15.48
2022-10-24T19:12:11.885Z,15.41
2022-10-24T19:14:38.438Z,15.55
2022-10-24T19:17:04.938Z,15.35
2022-10-24T19:19:34.412Z,15.36
2022-10-24T19:22:01.129Z,15.53
2022-10-24T19:24:27.470Z,15.43
2022-10-24T19:26:53.848Z,15.44
2022-10-24T19:29:20.272Z,15.39
2022-10-24T19:31:46.623Z,15.39
2022-10-24T19:34:13.016Z,15.37
2022-10-24T19:36:39.437Z,15.25
2022-10-24T19:39:06.470Z,15.29
2022-10-24T19:41:33.269Z,15.37
2022-10-24T19:43:59.780Z,15.15
2022-10-24T19:46:26.213Z,15.20
2022-10-24T19:48:53.081Z,15.09
2022-10-24T19:51:19.501Z,15.20
2022-10-24T19:53:46.369Z,15.20
2022-10-24T19:56:14.519Z,15.18
2022-10-24T19:58:41.649Z,15.15
2022-10-24T20:01:09.548Z,15.16
2022-10-24T20:03:37.186Z,15.16
2022-10-24T20:06:03.770Z,15.17
2022-10-24T20:08:30.156Z,15.19
2022-10-24T20:10:56.668Z,15.18
2022-10-24T20:13:23.125Z,15.20
2022-10-24T20:15:55.972Z,15.15
2022-10-24T20:18:23.433Z,15.12
2022-10-24T20:20:50.059Z,14.98
2022-10-24T20:23:17.060Z,14.87
2022-10-24T20:25:43.900Z,14.91
2022-10-24T20:28:10.396Z,14.96
2022-10-24T20:30:40.689Z,15.04
2022-10-24T20:33:07.134Z,14.94
2022-10-24T20:35:33.742Z,14.84
2022-10-24T20:38:00.103Z,14.92
2022-10-24T20:40:26.828Z,14.83
2022-10-24T20:42:53.522Z,14.94
2022-10-24T20:45:22.812Z,15.02
2022-10-24T20:47:50.155Z,14.93
2022-10-24T20:50:16.541Z,14.93
2022-10-24T20:52:43.096Z,15.01
2022-10-24T20:55:19.722Z,15.04
2022-10-24T20:57:56.107Z,14.73
2022-10-24T21:00:22.689Z,14.75
2022-10-24T21:02:50.685Z,14.80
2022-10-24T21:05:17.181Z,14.84
2022-10-24T21:07:43.597Z,14.83
2022-10-24T21:10:10.040Z,14.86
2022-10-24T21:12:36.500Z,14.89
2022-10-24T21:15:02.972Z,14.86
2022-10-24T21:17:29.409Z,14.94
2022-10-24T21:19:55.807Z,14.97
2022-10-24T21:22:22.270Z,14.97
2022-10-24T21:24:48.754Z,14.98
2022-10-24T21:27:15.152Z,14.79
2022-10-24T21:29:41.583Z,14.73
2022-10-24T21:32:07.991Z,14.69
2022-10-24T21:34:35.046Z,14.74
2022-10-24T21:37:01.893Z,14.80
2022-10-24T21:39:28.279Z,14.85
2022-10-24T21:41:54.652Z,14.83
2022-10-24T21:44:23.242Z,14.84
2022-10-24T21:46:51.828Z,14.87
2022-10-24T21:49:18.415Z,14.87
2022-10-24T21:51:46.734Z,14.87
2022-10-24T21:54:18.607Z,14.86
2022-10-24T21:56:45.106Z,14.82
2022-10-24T21:59:12.989Z,14.83
2022-10-24T22:01:40.182Z,14.82
2022-10-24T22:04:07.276Z,14.73
2022-10-24T22:06:34.637Z,14.71
2022-10-24T22:09:01.439Z,14.75
2022-10-24T22:11:29.801Z,14.67
2022-10-24T22:13:56.819Z,14.69
2022-10-24T22:16:24.610Z,14.67
2022-10-24T22:18:51.685Z,14.58
2022-10-24T22:21:30.466Z,14.62
2022-10-24T22:23:57.555Z,14.63
2022-10-24T22:26:24.533Z,14.54
2022-10-24T22:28:50.987Z,14.61
2022-10-24T22:31:17.547Z,14.37
2022-10-24T22:33:44.171Z,14.43
2022-10-24T22:36:16.758Z,14.47
2022-10-24T22:38:43.354Z,14.45
2022-10-24T22:41:10.292Z,14.38
2022-10-24T22:43:36.845Z,14.39
2022-10-24T22:46:06.050Z,14.37
2022-10-24T22:48:34.966Z,14.34
2022-10-24T22:51:01.449Z,14.30
2022-10-24T22:53:29.364Z,14.36
2022-10-24T22:55:55.788Z,14.13
2022-10-24T22:58:22.368Z,14.24
2022-10-24T23:00:58.509Z,14.26
2022-10-24T23:03:43.964Z,14.12
2022-10-24T23:06:16.816Z,14.13
2022-10-24T23:08:44.604Z,14.10
2022-10-24T23:11:12.543Z,14.13
2022-10-24T23:13:40.352Z,14.03
2022-10-24T23:16:25.361Z,14.06
2022-10-24T23:18:51.977Z,13.99
2022-10-24T23:21:34.714Z,13.98
2022-10-24T23:24:01.360Z,13.92
2022-10-24T23:26:27.730Z,13.95
2022-10-24T23:29:08.689Z,13.82
2022-10-24T23:31:35.333Z,13.85
2022-10-24T23:34:01.936Z,13.86
2022-10-24T23:36:30.122Z,13.89
2022-10-24T23:38:56.940Z,13.83
2022-10-24T23:41:23.520Z,13.83
2022-10-24T23:43:50.198Z,13.98
2022-10-24T23:46:16.617Z,13.79
2022-10-24T23:49:18.783Z,13.77
2022-10-24T23:51:45.151Z,13.75
2022-10-24T23:54:12.815Z,13.71
2022-10-24T23:56:39.555Z,13.77
2022-10-24T23:59:06.043Z,13.80
